Time;durP1;ratioP1;P1;durP2;ratioP2;P2;SDS_P1;SDS_P2;PMS_P1;PMS_P2;Temp;Humidity;BMP_temperature;BMP_pressure;BME280_temperature;BME280_humidity;BME280_pressure;Samples;Min_cycle;Max_cycle;Signal;HPM_P1;HPM_P2
2021/06/02 00:00:25;;;;;;;12.13;7.80;;;15.90;69.40;;;;;;5067434;28;20036;-57
2021/06/02 00:02:55;;;;;;;10.02;6.97;;;15.80;69.70;;;;;;5094908;28;20060;-57
2021/06/02 00:05:23;;;;;;;13.32;7.38;;;15.80;69.60;;;;;;5083506;28;20043;-57
2021/06/02 00:07:50;;;;;;;11.70;7.70;;;15.80;70.00;;;;;;5093833;28;20058;-56
2021/06/02 00:10:18;;;;;;;15.13;7.68;;;15.70;70.20;;;;;;5094832;28;20048;-57
2021/06/02 00:12:46;;;;;;;12.20;8.13;;;15.70;69.90;;;;;;5093460;28;20063;-57
2021/06/02 00:15:25;;;;;;;9.75;7.05;;;15.70;69.40;;;;;;5089553;28;20051;-57
2021/06/02 00:17:52;;;;;;;13.77;7.57;;;15.80;69.20;;;;;;5087467;28;20428;-56
2021/06/02 00:20:18;;;;;;;10.50;7.70;;;15.80;69.30;;;;;;5094153;28;20043;-55
2021/06/02 00:22:46;;;;;;;13.02;8.10;;;15.80;69.00;;;;;;5093487;28;20040;-56
2021/06/02 00:25:13;;;;;;;10.73;7.55;;;15.70;69.10;;;;;;5094492;28;20036;-55
2021/06/02 00:27:41;;;;;;;14.30;8.48;;;15.70;69.00;;;;;;5086019;28;20064;-56
2021/06/02 00:30:10;;;;;;;12.00;7.80;;;15.70;69.00;;;;;;5089136;28;20046;-56
2021/06/02 00:32:36;;;;;;;12.57;7.68;;;15.70;68.90;;;;;;5089701;28;20043;-56
2021/06/02 00:35:05;;;;;;;10.93;7.65;;;15.60;69.20;;;;;;5091751;28;20038;-56
2021/06/02 00:37:31;;;;;;;11.95;7.80;;;15.60;69.40;;;;;;5092577;28;20044;-53
2021/06/02 00:40:00;;;;;;;13.82;7.75;;;15.60;69.60;;;;;;5091452;28;20039;-56
2021/06/02 00:42:32;;;;;;;11.90;7.43;;;15.60;69.30;;;;;;5067036;28;20044;-55
2021/06/02 00:44:59;;;;;;;11.23;7.90;;;15.60;69.30;;;;;;5083805;28;20043;-55
2021/06/02 00:47:26;;;;;;;13.07;8.40;;;15.60;69.10;;;;;;5088869;28;20064;-56
2021/06/02 00:49:52;;;;;;;13.23;8.18;;;15.60;69.40;;;;;;5080116;28;20182;-56
2021/06/02 00:52:20;;;;;;;12.65;8.32;;;15.50;69.40;;;;;;5052479;28;20041;-55
2021/06/02 00:54:50;;;;;;;11.07;8.10;;;15.60;68.90;;;;;;5063213;28;20442;-56
2021/06/02 00:57:18;;;;;;;11.50;7.97;;;15.50;69.20;;;;;;5090033;28;20055;-55
2021/06/02 01:00:06;;;;;;;10.60;7.65;;;15.50;69.40;;;;;;5085922;28;20127;-55
2021/06/02 01:02:40;;;;;;;12.18;8.52;;;15.50;69.10;;;;;;5094467;28;20051;-53
2021/06/02 01:05:06;;;;;;;13.55;8.05;;;15.50;69.10;;;;;;5076214;28;20047;-54
2021/06/02 01:07:37;;;;;;;12.18;8.50;;;15.40;69.40;;;;;;5093640;28;20500;-54
2021/06/02 01:10:03;;;;;;;11.85;7.97;;;15.40;69.50;;;;;;5079035;28;20036;-55
2021/06/02 01:12:31;;;;;;;10.90;8.10;;;15.30;70.00;;;;;;5058121;28;20074;-55
2021/06/02 01:14:59;;;;;;;14.18;8.07;;;15.20;70.70;;;;;;5089135;28;20544;-55
2021/06/02 01:17:30;;;;;;;9.75;7.53;;;15.20;70.30;;;;;;5083129;28;20032;-54
2021/06/02 01:19:58;;;;;;;11.75;8.05;;;15.20;70.50;;;;;;5093025;28;20408;-54
2021/06/02 01:22:25;;;;;;;10.20;7.45;;;15.10;70.60;;;;;;5093723;28;20040;-54
2021/06/02 01:24:51;;;;;;;13.68;7.57;;;15.10;70.80;;;;;;5092502;28;20078;-55
2021/06/02 01:27:18;;;;;;;11.32;8.02;;;15.00;71.20;;;;;;5091478;28;20508;-53
2021/06/02 01:29:47;;;;;;;15.15;7.70;;;15.10;70.90;;;;;;5093173;28;20043;-56
2021/06/02 01:32:12;;;;;;;13.50;7.90;;;15.10;70.10;;;;;;5088747;28;20123;-54
2021/06/02 01:34:58;;;;;;;11.93;7.80;;;15.10;70.10;;;;;;5090337;28;20078;-57
2021/06/02 01:37:55;;;;;;;11.27;7.32;;;15.00;70.30;;;;;;5090877;28;20399;-54
2021/06/02 01:40:42;;;;;;;11.95;7.50;;;15.00;70.80;;;;;;5078949;28;20120;-55
2021/06/02 01:43:43;;;;;;;16.05;8.63;;;15.00;69.90;;;;;;5079801;28;20040;-55
2021/06/02 01:46:28;;;;;;;13.82;7.82;;;14.90;70.50;;;;;;5088099;28;20043;-53
2021/06/02 01:49:15;;;;;;;10.27;7.43;;;14.90;70.40;;;;;;5078106;28;20111;-54
2021/06/02 01:52:08;;;;;;;12.18;7.78;;;14.80;70.00;;;;;;5078923;28;20059;-55
2021/06/02 01:55:16;;;;;;;12.65;7.82;;;14.70;71.10;;;;;;5091678;28;20063;-56
2021/06/02 01:57:56;;;;;;;12.70;7.95;;;14.80;70.70;;;;;;5085142;28;20052;-53
2021/06/02 02:00:41;;;;;;;14.98;8.00;;;14.70;70.80;;;;;;5093002;28;20093;-55
2021/06/02 02:03:37;;;;;;;12.32;7.72;;;14.60;71.00;;;;;;5092467;28;20074;-56
2021/06/02 02:06:37;;;;;;;11.10;7.85;;;14.60;71.10;;;;;;5054833;28;20497;-53
2021/06/02 02:09:19;;;;;;;11.63;7.32;;;14.70;70.90;;;;;;5082697;28;20450;-55
2021/06/02 02:11:46;;;;;;;12.77;7.97;;;14.60;71.10;;;;;;5054721;28;20043;-53
2021/06/02 02:14:49;;;;;;;11.10;7.65;;;14.60;70.90;;;;;;5086716;28;20028;-55
2021/06/02 02:18:03;;;;;;;11.90;7.72;;;14.50;71.10;;;;;;5090569;28;20040;-53
2021/06/02 02:21:02;;;;;;;12.60;7.88;;;14.50;71.10;;;;;;5091030;28;20071;-53
2021/06/02 02:23:37;;;;;;;11.40;7.47;;;14.40;71.40;;;;;;5072892;28;20045;-55
2021/06/02 02:26:12;;;;;;;10.65;7.03;;;14.40;71.90;;;;;;5087146;28;20401;-54
2021/06/02 02:28:50;;;;;;;12.23;7.63;;;14.30;71.80;;;;;;5086591;28;20477;-54
2021/06/02 02:31:47;;;;;;;12.38;8.77;;;14.30;72.10;;;;;;5076910;28;20051;-54
2021/06/02 02:34:42;;;;;;;13.18;8.05;;;14.30;72.00;;;;;;5088993;28;20454;-54
2021/06/02 02:37:28;;;;;;;13.18;7.65;;;14.30;72.20;;;;;;5090332;28;20082;-55
2021/06/02 02:40:12;;;;;;;11.75;7.82;;;14.20;72.20;;;;;;5065593;28;20120;-56
2021/06/02 02:43:05;;;;;;;11.93;8.20;;;14.20;72.20;;;;;;5083803;28;20044;-54
2021/06/02 02:45:36;;;;;;;;;;;14.20;72.00;;;;;;5054186;28;20120;-55
2021/06/02 02:48:37;;;;;;;11.95;7.82;;;14.20;72.30;;;;;;5091092;28;19920;-52
2021/06/02 02:51:27;;;;;;;12.82;7.70;;;14.20;72.40;;;;;;5071268;28;20032;-56
2021/06/02 02:54:03;;;;;;;11.98;8.07;;;14.20;72.00;;;;;;5090451;28;20048;-57
2021/06/02 02:56:40;;;;;;;12.32;7.90;;;14.10;72.60;;;;;;5070679;28;20044;-56
2021/06/02 02:59:18;;;;;;;12.35;8.25;;;14.10;73.30;;;;;;5064969;28;20044;-57
2021/06/02 03:02:14;;;;;;;11.65;8.07;;;14.00;73.00;;;;;;5080043;28;20115;-56
2021/06/02 03:04:48;;;;;;;11.05;7.93;;;14.00;73.30;;;;;;4999623;28;20454;-57
2021/06/02 03:07:17;;;;;;;13.52;8.10;;;14.00;73.60;;;;;;5090299;28;20412;-57
2021/06/02 03:09:53;;;;;;;13.90;8.02;;;13.90;73.90;;;;;;5070540;28;20048;-56
2021/06/02 03:12:51;;;;;;;12.77;8.20;;;13.90;73.40;;;;;;5081932;28;20044;-56
2021/06/02 03:15:41;;;;;;;11.02;7.82;;;13.90;73.60;;;;;;5087561;28;20122;-56
2021/06/02 03:18:39;;;;;;;13.25;8.32;;;13.80;73.80;;;;;;5064460;28;20504;-56
2021/06/02 03:21:14;;;;;;;11.73;8.27;;;13.80;74.30;;;;;;5073019;28;20093;-56
2021/06/02 03:23:59;;;;;;;10.60;8.25;;;13.70;74.40;;;;;;5063392;28;20048;-56
2021/06/02 03:26:38;;;;;;;13.00;8.82;;;13.70;74.20;;;;;;5059429;28;20044;-56
2021/06/02 03:29:25;;;;;;;12.90;7.93;;;13.70;74.30;;;;;;5084805;28;20048;-55
2021/06/02 03:32:13;;;;;;;15.35;8.43;;;13.60;74.40;;;;;;5091590;28;20416;-57
2021/06/02 03:35:01;;;;;;;14.93;8.60;;;13.70;74.20;;;;;;5077893;28;20040;-56
2021/06/02 03:37:43;;;;;;;13.77;8.75;;;13.50;74.90;;;;;;5068009;28;20484;-57
2021/06/02 03:40:37;;;;;;;12.88;8.27;;;13.50;75.00;;;;;;5086721;28;20059;-57
2021/06/02 03:43:21;;;;;;;14.00;8.02;;;13.60;74.90;;;;;;5073239;28;20455;-57
2021/06/02 03:45:59;;;;;;;12.85;9.02;;;13.40;75.10;;;;;;5090224;28;20044;-56
2021/06/02 03:48:39;;;;;;;12.00;8.70;;;13.40;75.40;;;;;;5091470;28;20068;-57
2021/06/02 03:51:18;;;;;;;14.27;8.55;;;13.40;75.70;;;;;;5083353;28;20194;-56
2021/06/02 03:54:12;;;;;;;13.82;7.75;;;13.40;75.70;;;;;;5053064;28;20043;-56
2021/06/02 03:56:47;;;;;;;12.23;7.90;;;13.40;75.60;;;;;;5060213;28;20572;-56
2021/06/02 03:59:32;;;;;;;13.52;8.07;;;13.40;75.30;;;;;;5079878;28;20044;-56
2021/06/02 04:02:06;;;;;;;11.88;8.25;;;13.40;75.30;;;;;;5091480;28;20040;-56
2021/06/02 04:04:37;;;;;;;10.95;8.23;;;13.40;75.10;;;;;;5077416;28;20036;-55
2021/06/02 04:07:05;;;;;;;11.07;8.00;;;13.40;75.60;;;;;;5079820;28;20044;-56
2021/06/02 04:10:02;;;;;;;13.43;8.57;;;13.30;75.40;;;;;;5082621;28;20126;-54
2021/06/02 04:12:34;;;;;;;;;;;13.30;75.70;;;;;;5082156;28;20085;-56
2021/06/02 04:15:04;;;;;;;11.13;7.97;;;13.30;75.40;;;;;;5086429;28;19961;-56
2021/06/02 04:17:32;;;;;;;13.63;8.02;;;13.30;75.40;;;;;;5054149;28;20041;-56
2021/06/02 04:20:04;;;;;;;15.70;8.45;;;13.30;75.80;;;;;;5075457;28;20504;-56
2021/06/02 04:22:32;;;;;;;12.15;7.82;;;13.30;75.70;;;;;;5089071;28;20044;-56
2021/06/02 04:25:01;;;;;;;10.70;7.55;;;13.30;75.70;;;;;;5090873;28;20032;-56
2021/06/02 04:27:37;;;;;;;11.43;7.93;;;13.30;75.80;;;;;;5074494;28;20127;-56
2021/06/02 04:30:05;;;;;;;12.45;8.13;;;13.30;75.70;;;;;;5088106;28;20550;-56
2021/06/02 04:32:39;;;;;;;11.45;7.82;;;13.30;75.70;;;;;;5079245;28;20065;-55
2021/06/02 04:35:10;;;;;;;11.88;7.85;;;13.30;75.70;;;;;;5091425;28;20037;-56
2021/06/02 04:37:36;;;;;;;14.48;8.63;;;13.30;76.20;;;;;;5082968;28;20400;-57
2021/06/02 04:40:05;;;;;;;10.13;7.30;;;13.40;75.80;;;;;;5091814;28;20571;-56
2021/06/02 04:42:37;;;;;;;14.45;7.97;;;13.50;75.30;;;;;;5070127;28;20033;-57
2021/06/02 04:45:04;;;;;;;;;;;13.50;75.10;;;;;;5087694;28;20040;-56
2021/06/02 04:47:32;;;;;;;15.45;8.23;;;13.60;75.20;;;;;;5067299;28;19916;-57
2021/06/02 04:50:08;;;;;;;13.43;8.05;;;13.60;74.60;;;;;;5085511;28;20092;-57
2021/06/02 04:52:43;;;;;;;11.48;7.50;;;13.60;75.30;;;;;;5091224;28;20446;-57
2021/06/02 04:55:27;;;;;;;12.77;7.97;;;13.70;74.80;;;;;;5090832;28;20063;-57
2021/06/02 04:58:11;;;;;;;11.15;7.78;;;13.70;74.90;;;;;;5069334;28;20047;-57
2021/06/02 05:01:27;;;;;;;13.00;7.75;;;13.70;75.40;;;;;;5091617;28;20040;-56
2021/06/02 05:04:23;;;;;;;11.27;7.47;;;13.70;75.40;;;;;;5015731;28;20061;-57
2021/06/02 05:07:27;;;;;;;10.13;7.35;;;13.70;75.60;;;;;;5090801;28;20028;-56
2021/06/02 05:10:29;;;;;;;9.68;7.40;;;13.80;75.50;;;;;;5090569;28;20504;-56
2021/06/02 05:13:26;;;;;;;12.15;7.80;;;13.80;75.20;;;;;;5084719;28;20040;-56
2021/06/02 05:16:19;;;;;;;10.75;7.15;;;13.90;75.60;;;;;;5088985;28;20078;-57
2021/06/02 05:19:15;;;;;;;12.57;7.60;;;14.00;74.00;;;;;;5081820;28;20048;-57
2021/06/02 05:22:09;;;;;;;12.63;7.43;;;14.10;74.30;;;;;;5086960;28;20039;-57
2021/06/02 05:25:02;;;;;;;14.32;7.38;;;14.10;74.60;;;;;;5087990;28;20067;-57
2021/06/02 05:27:53;;;;;;;13.55;7.47;;;14.10;75.00;;;;;;5059366;28;20093;-56
2021/06/02 05:30:53;;;;;;;12.57;7.57;;;14.20;73.90;;;;;;5089465;28;21968;-57
2021/06/02 05:33:46;;;;;;;11.55;7.65;;;14.30;73.50;;;;;;5090896;28;20043;-56
2021/06/02 05:36:29;;;;;;;13.10;7.72;;;14.40;73.20;;;;;;5088838;28;20559;-57
2021/06/02 05:39:12;;;;;;;14.85;7.63;;;14.40;73.20;;;;;;5078325;28;20048;-54
2021/06/02 05:41:42;;;;;;;13.73;7.13;;;14.50;72.90;;;;;;5084870;28;20049;-57
2021/06/02 05:44:33;;;;;;;13.15;6.97;;;14.70;72.60;;;;;;5088711;28;20040;-56
2021/06/02 05:47:30;;;;;;;11.25;6.93;;;15.10;71.60;;;;;;5084226;28;20079;-57
2021/06/02 05:50:29;;;;;;;10.57;6.57;;;15.30;71.10;;;;;;5086491;28;20043;-57
2021/06/02 05:53:20;;;;;;;10.23;6.80;;;15.50;69.70;;;;;;5080584;28;20036;-57
2021/06/02 05:55:45;;;;;;;9.80;6.43;;;15.80;69.50;;;;;;5080311;28;20059;-56
2021/06/02 05:58:45;;;;;;;11.25;6.78;;;16.10;67.90;;;;;;5076442;28;20048;-57
2021/06/02 06:01:29;;;;;;;10.25;6.70;;;16.30;67.10;;;;;;5085206;28;20040;-56
2021/06/02 06:04:32;;;;;;;10.57;6.68;;;16.50;67.40;;;;;;5081955;28;20049;-57
2021/06/02 06:07:17;;;;;;;;;;;16.70;65.40;;;;;;5085169;28;20064;-54
2021/06/02 06:10:04;;;;;;;8.73;5.88;;;16.80;65.30;;;;;;5076234;28;19916;-56
2021/06/02 06:12:57;;;;;;;7.95;5.65;;;16.90;65.90;;;;;;5084932;28;20123;-57
2021/06/02 06:15:53;;;;;;;11.20;5.47;;;17.00;64.30;;;;;;5080096;28;20134;-59
2021/06/02 06:19:06;;;;;;;9.18;5.15;;;17.20;63.70;;;;;;5081384;28;20388;-57
2021/06/02 06:22:13;;;;;;;9.52;5.43;;;17.40;63.30;;;;;;5021749;28;20061;-57
2021/06/02 06:25:03;;;;;;;10.07;5.05;;;17.50;63.70;;;;;;4968722;28;20115;-56
2021/06/02 06:27:35;;;;;;;9.38;5.07;;;17.60;61.20;;;;;;5081658;28;20056;-57
2021/06/02 06:30:10;;;;;;;10.95;4.95;;;17.70;62.10;;;;;;5081835;28;20491;-56
2021/06/02 06:32:38;;;;;;;8.65;4.53;;;17.80;61.70;;;;;;5076049;28;20132;-56
2021/06/02 06:35:05;;;;;;;7.57;4.57;;;17.90;61.60;;;;;;5088391;28;20040;-57
2021/06/02 06:37:39;;;;;;;9.70;4.20;;;18.00;60.60;;;;;;5053808;28;20496;-57
2021/06/02 06:40:07;;;;;;;8.95;4.47;;;18.20;61.20;;;;;;5094942;28;20484;-56
2021/06/02 06:42:40;;;;;;;7.25;4.88;;;18.30;60.00;;;;;;5084017;28;20037;-57
2021/06/02 06:45:08;;;;;;;;;;;18.40;58.50;;;;;;5081835;28;20529;-57
2021/06/02 06:47:35;;;;;;;7.43;4.53;;;18.50;57.60;;;;;;5078184;28;20311;-56
2021/06/02 06:50:01;;;;;;;6.03;4.55;;;18.50;57.30;;;;;;5085915;28;20032;-55
2021/06/02 06:52:28;;;;;;;8.10;3.80;;;18.50;57.40;;;;;;5059747;28;20051;-53
2021/06/02 06:54:57;;;;;;;9.05;4.40;;;18.60;55.10;;;;;;5081670;28;20066;-57
2021/06/02 06:57:23;;;;;;;6.88;4.53;;;18.70;56.60;;;;;;5077038;28;20451;-56
2021/06/02 06:59:50;;;;;;;8.02;5.07;;;18.70;58.00;;;;;;5086214;28;20071;-55
2021/06/02 07:02:17;;;;;;;7.20;4.45;;;18.70;58.80;;;;;;5078002;28;20060;-53
2021/06/02 07:04:43;;;;;;;8.05;4.60;;;18.80;59.60;;;;;;5080859;28;20032;-54
2021/06/02 07:07:10;;;;;;;7.18;4.53;;;18.90;59.50;;;;;;5057000;28;20037;-54
2021/06/02 07:09:36;;;;;;;8.38;4.22;;;18.90;58.90;;;;;;5080470;28;20051;-54
2021/06/02 07:12:03;;;;;;;6.65;4.57;;;19.10;57.60;;;;;;5077751;28;20438;-54
2021/06/02 07:14:37;;;;;;;8.70;4.38;;;19.20;56.60;;;;;;5066216;28;20062;-53
2021/06/02 07:17:05;;;;;;;9.38;4.40;;;19.20;56.50;;;;;;5081206;28;20073;-55
2021/06/02 07:19:38;;;;;;;8.98;4.70;;;19.30;56.90;;;;;;5061185;28;20044;-56
2021/06/02 07:22:05;;;;;;;6.55;4.20;;;19.40;56.50;;;;;;5058574;28;20044;-52
2021/06/02 07:24:32;;;;;;;8.73;4.35;;;19.50;56.20;;;;;;5062343;28;20048;-54
2021/06/02 07:27:01;;;;;;;9.02;5.07;;;19.50;56.30;;;;;;5081044;28;20831;-55
2021/06/02 07:29:29;;;;;;;9.00;5.20;;;19.50;56.20;;;;;;5064773;28;20050;-55
2021/06/02 07:31:56;;;;;;;7.40;4.93;;;19.50;55.70;;;;;;5086230;28;20040;-56
2021/06/02 07:34:23;;;;;;;9.88;5.22;;;19.60;55.50;;;;;;5087852;28;20088;-56
2021/06/02 07:36:51;;;;;;;10.38;5.50;;;19.70;54.60;;;;;;5058755;28;20046;-55
2021/06/02 07:39:20;;;;;;;8.63;5.50;;;19.70;53.70;;;;;;5067776;28;20040;-55
2021/06/02 07:41:46;;;;;;;8.18;5.78;;;19.70;54.50;;;;;;5091237;28;20032;-53
2021/06/02 07:44:12;;;;;;;9.07;5.45;;;19.70;54.10;;;;;;5077809;28;20051;-54
2021/06/02 07:46:39;;;;;;;9.18;5.63;;;19.60;55.10;;;;;;5075625;28;20043;-57
2021/06/02 07:49:18;;;;;;;12.45;5.93;;;19.60;54.40;;;;;;5090606;28;20492;-55
2021/06/02 07:51:44;;;;;;;10.77;6.00;;;19.50;55.00;;;;;;5089293;28;20047;-53
2021/06/02 07:54:10;;;;;;;11.40;5.97;;;19.40;55.00;;;;;;5083755;28;20481;-55
2021/06/02 07:56:36;;;;;;;10.93;5.43;;;19.30;55.70;;;;;;5090577;28;20044;-53
2021/06/02 07:59:01;;;;;;;16.17;5.68;;;19.30;55.40;;;;;;5093646;28;20453;-52
2021/06/02 08:01:28;;;;;;;9.57;5.50;;;19.30;55.20;;;;;;5084225;28;20477;-55
2021/06/02 08:03:55;;;;;;;9.75;5.53;;;19.30;53.30;;;;;;5065362;28;20056;-56
2021/06/02 08:06:21;;;;;;;11.40;5.82;;;19.30;52.60;;;;;;5088149;28;20085;-54
2021/06/02 08:08:49;;;;;;;11.25;6.13;;;19.30;53.20;;;;;;5064253;28;20063;-56
2021/06/02 08:11:15;;;;;;;10.75;5.68;;;19.40;53.90;;;;;;5061240;28;20051;-51
2021/06/02 08:13:40;;;;;;;8.50;5.57;;;19.40;53.80;;;;;;5065192;28;20036;-55
2021/06/02 08:16:08;;;;;;;8.20;5.70;;;19.40;54.60;;;;;;5093792;28;20047;-55
2021/06/02 08:18:34;;;;;;;8.32;5.50;;;19.50;56.20;;;;;;5075956;28;20044;-55
2021/06/02 08:20:59;;;;;;;9.93;5.35;;;19.60;54.10;;;;;;5095385;28;20488;-54
2021/06/02 08:23:25;;;;;;;9.88;5.43;;;19.60;54.40;;;;;;5092850;28;20040;-55
2021/06/02 08:25:51;;;;;;;10.07;5.95;;;19.70;54.70;;;;;;5089924;28;20044;-57
2021/06/02 08:28:20;;;;;;;9.02;5.30;;;19.70;54.70;;;;;;5082483;28;20040;-55
2021/06/02 08:30:48;;;;;;;7.32;5.07;;;19.90;53.60;;;;;;5085260;28;20085;-55
2021/06/02 08:33:14;;;;;;;7.60;5.07;;;20.00;53.40;;;;;;5076989;28;20039;-54
2021/06/02 08:35:41;;;;;;;7.15;4.93;;;20.00;53.00;;;;;;5080201;28;20427;-54
2021/06/02 08:38:08;;;;;;;8.93;4.68;;;20.10;53.40;;;;;;5072676;28;20496;-57
2021/06/02 08:40:36;;;;;;;9.00;4.90;;;20.20;53.20;;;;;;5059107;28;20082;-57
2021/06/02 08:43:02;;;;;;;6.40;4.30;;;20.20;52.50;;;;;;5057442;28;20037;-57
2021/06/02 08:45:27;;;;;;;6.72;4.20;;;20.30;52.10;;;;;;5092071;28;20042;-54
2021/06/02 08:47:57;;;;;;;8.48;4.38;;;20.50;50.60;;;;;;5076782;28;20381;-55
2021/06/02 08:50:43;;;;;;;7.22;4.28;;;20.60;49.90;;;;;;5096677;28;20028;-57
2021/06/02 08:53:14;;;;;;;7.40;3.80;;;20.70;51.10;;;;;;5086502;28;20040;-55
2021/06/02 08:55:44;;;;;;;7.75;3.63;;;20.80;50.60;;;;;;5073837;28;20060;-53
2021/06/02 08:58:16;;;;;;;7.70;3.85;;;20.90;50.40;;;;;;5067764;28;20036;-53
2021/06/02 09:00:42;;;;;;;;;;;21.20;51.80;;;;;;5080735;28;20098;-50
2021/06/02 09:03:08;;;;;;;5.18;3.58;;;21.40;50.00;;;;;;5079889;28;20376;-58
2021/06/02 09:05:34;;;;;;;5.72;3.58;;;21.50;46.90;;;;;;5093091;28;20044;-51
2021/06/02 09:08:01;;;;;;;8.07;3.78;;;21.70;47.10;;;;;;5087444;28;20044;-53
2021/06/02 09:10:27;;;;;;;5.15;3.17;;;21.90;47.10;;;;;;5090146;28;20063;-54
2021/06/02 09:12:59;;;;;;;9.90;4.03;;;21.90;47.00;;;;;;5095485;28;20063;-50
2021/06/02 09:15:33;;;;;;;8.82;4.00;;;22.00;46.00;;;;;;5095112;28;20589;-51
2021/06/02 09:18:01;;;;;;;6.50;3.70;;;22.10;46.20;;;;;;5066302;28;20060;-52
2021/06/02 09:20:43;;;;;;;5.22;3.53;;;22.20;44.90;;;;;;5094874;28;20036;-56
2021/06/02 09:23:28;;;;;;;5.57;3.42;;;22.30;44.70;;;;;;5095911;28;20039;-53
2021/06/02 09:25:59;;;;;;;6.70;3.55;;;22.30;45.90;;;;;;5095246;28;20314;-56
2021/06/02 09:28:48;;;;;;;8.73;3.80;;;22.40;44.60;;;;;;5094827;28;20043;-54
2021/06/02 09:31:32;;;;;;;7.55;3.30;;;22.40;41.80;;;;;;5094333;28;20050;-51
2021/06/02 09:34:22;;;;;;;8.00;3.60;;;22.30;44.20;;;;;;5093816;28;20504;-55
2021/06/02 09:37:06;;;;;;;5.47;3.17;;;22.40;44.30;;;;;;5094821;28;20060;-55
2021/06/02 09:39:40;;;;;;;8.38;3.60;;;22.40;45.10;;;;;;5090124;28;20123;-51
2021/06/02 09:42:29;;;;;;;11.80;3.60;;;22.40;45.30;;;;;;5090119;28;20518;-54
2021/06/02 09:45:10;;;;;;;5.55;3.17;;;22.50;45.50;;;;;;5070863;28;20048;-50
2021/06/02 09:47:40;;;;;;;;;;;22.60;44.80;;;;;;5076553;28;20051;-56
2021/06/02 09:50:06;;;;;;;5.20;3.75;;;22.60;46.00;;;;;;5091889;28;20339;-54
2021/06/02 09:52:49;;;;;;;6.85;3.55;;;22.60;45.40;;;;;;5090717;28;20127;-54
2021/06/02 09:55:30;;;;;;;6.22;3.00;;;22.70;46.20;;;;;;5083056;28;20162;-55
2021/06/02 09:58:01;;;;;;;8.60;3.58;;;22.70;46.70;;;;;;5083970;28;20072;-53
2021/06/02 10:00:30;;;;;;;5.45;3.13;;;22.70;46.00;;;;;;5093475;28;20040;-55
2021/06/02 10:02:58;;;;;;;6.70;3.42;;;22.80;46.00;;;;;;5092456;28;20071;-56
2021/06/02 10:05:24;;;;;;;5.72;3.53;;;22.80;45.20;;;;;;5093375;28;20150;-55
2021/06/02 10:07:50;;;;;;;8.27;3.92;;;22.80;45.00;;;;;;5093809;28;20108;-57
2021/06/02 10:10:22;;;;;;;5.80;3.60;;;22.90;44.20;;;;;;5094026;28;20039;-57
2021/06/02 10:12:57;;;;;;;6.45;3.72;;;22.90;45.00;;;;;;5073886;28;20093;-58
2021/06/02 10:15:39;;;;;;;6.68;3.88;;;22.90;45.00;;;;;;5093992;28;20106;-57
2021/06/02 10:18:23;;;;;;;6.70;3.80;;;23.00;43.30;;;;;;5076469;28;20300;-56
2021/06/02 10:21:01;;;;;;;5.10;3.58;;;23.00;45.00;;;;;;5087918;28;20060;-55
2021/06/02 10:23:27;;;;;;;6.35;3.65;;;23.10;43.60;;;;;;5092079;28;20055;-53
2021/06/02 10:25:54;;;;;;;5.55;4.00;;;23.10;45.10;;;;;;5090433;28;20123;-56
2021/06/02 10:28:22;;;;;;;11.25;4.05;;;23.20;45.30;;;;;;5057765;28;20040;-52
2021/06/02 10:30:48;;;;;;;10.43;3.90;;;23.30;47.10;;;;;;5074546;28;20099;-53
2021/06/02 10:33:14;;;;;;;6.45;3.78;;;23.50;45.20;;;;;;5029877;28;20048;-56
2021/06/02 10:35:40;;;;;;;6.32;4.03;;;23.50;45.20;;;;;;5086192;28;20044;-56
2021/06/02 10:38:07;;;;;;;5.93;4.25;;;23.70;44.50;;;;;;5059688;28;20032;-56
2021/06/02 10:40:35;;;;;;;7.47;3.95;;;23.70;44.10;;;;;;5089186;28;20043;-56
2021/06/02 10:43:09;;;;;;;6.50;4.10;;;23.80;45.10;;;;;;5091461;28;20103;-57
2021/06/02 10:45:50;;;;;;;9.98;4.70;;;23.90;44.60;;;;;;5071454;28;21916;-57
2021/06/02 10:48:15;;;;;;;8.60;4.10;;;24.00;43.90;;;;;;5082596;28;20448;-56
2021/06/02 10:50:44;;;;;;;6.88;4.43;;;24.00;45.40;;;;;;5092841;28;20040;-56
2021/06/02 10:53:24;;;;;;;6.40;4.22;;;24.00;43.60;;;;;;5090456;28;20446;-55
2021/06/02 10:55:55;;;;;;;6.10;4.03;;;24.00;43.40;;;;;;5065388;28;20048;-54
2021/06/02 10:58:27;;;;;;;9.18;4.20;;;23.90;43.60;;;;;;5092170;28;20098;-53
2021/06/02 11:01:05;;;;;;;6.40;3.88;;;24.00;44.30;;;;;;5072948;28;20519;-58
2021/06/02 11:03:32;;;;;;;7.35;4.57;;;24.20;42.90;;;;;;5079549;28;20046;-54
2021/06/02 11:06:15;;;;;;;10.90;4.72;;;24.20;43.00;;;;;;5092781;28;20043;-55
2021/06/02 11:08:48;;;;;;;5.68;3.92;;;24.20;43.30;;;;;;5083587;28;20074;-58
2021/06/02 11:11:30;;;;;;;;;;;24.40;44.20;;;;;;5073739;28;20103;-56
2021/06/02 11:14:17;;;;;;;10.68;4.13;;;24.50;43.70;;;;;;5081299;28;19924;-55
2021/06/02 11:17:07;;;;;;;9.35;4.60;;;24.60;43.30;;;;;;5079621;28;20478;-56
2021/06/02 11:19:44;;;;;;;8.48;4.40;;;24.60;43.00;;;;;;5090988;28;20048;-57
2021/06/02 11:22:22;;;;;;;8.20;4.95;;;24.70;44.30;;;;;;5091263;28;20133;-54
2021/06/02 11:24:50;;;;;;;6.78;4.50;;;24.80;42.40;;;;;;5085007;28;20079;-54
2021/06/02 11:27:17;;;;;;;9.35;5.13;;;24.80;43.10;;;;;;5076480;28;20032;-54
2021/06/02 11:29:51;;;;;;;7.65;4.80;;;24.90;42.70;;;;;;5094617;28;20039;-55
2021/06/02 11:32:31;;;;;;;8.18;4.78;;;24.90;42.70;;;;;;5095302;28;20116;-56
2021/06/02 11:35:14;;;;;;;8.98;5.00;;;24.90;42.90;;;;;;5073510;28;20039;-58
2021/06/02 11:37:41;;;;;;;6.93;4.43;;;24.90;42.50;;;;;;5076121;28;20071;-58
2021/06/02 11:40:14;;;;;;;6.97;4.63;;;25.00;43.40;;;;;;5070934;28;20505;-57
2021/06/02 11:42:47;;;;;;;9.55;4.80;;;25.00;43.40;;;;;;5093469;28;20123;-58
2021/06/02 11:45:15;;;;;;;6.95;4.60;;;25.00;42.30;;;;;;5069519;28;20038;-58
2021/06/02 11:47:50;;;;;;;8.25;5.40;;;25.00;43.00;;;;;;5094456;28;20523;-57
2021/06/02 11:50:21;;;;;;;12.25;5.07;;;24.90;43.00;;;;;;5094066;28;20043;-58
2021/06/02 11:52:58;;;;;;;6.97;4.68;;;24.80;43.10;;;;;;5089287;28;20044;-57
2021/06/02 11:55:24;;;;;;;7.20;4.85;;;24.80;43.10;;;;;;5085969;28;20086;-58
2021/06/02 11:57:51;;;;;;;9.90;4.85;;;24.90;43.00;;;;;;5075401;28;20130;-58
2021/06/02 12:00:19;;;;;;;8.25;4.97;;;25.00;45.00;;;;;;5076178;28;20036;-58
2021/06/02 12:02:50;;;;;;;9.75;4.97;;;25.10;43.20;;;;;;5074080;28;20109;-57
2021/06/02 12:05:35;;;;;;;6.75;4.43;;;25.20;43.90;;;;;;5083503;28;20101;-58
2021/06/02 12:08:22;;;;;;;8.32;4.93;;;25.30;43.30;;;;;;5087820;28;20049;-58
2021/06/02 12:10:54;;;;;;;7.95;4.43;;;25.50;41.00;;;;;;5093117;28;20040;-55
2021/06/02 12:13:26;;;;;;;;;;;25.40;42.10;;;;;;5056773;28;20044;-54
2021/06/02 12:15:58;;;;;;;6.95;3.85;;;25.40;41.30;;;;;;5071860;28;20337;-56
2021/06/02 12:18:36;;;;;;;8.65;5.05;;;25.50;41.80;;;;;;5092835;28;20530;-57
2021/06/02 12:21:16;;;;;;;7.97;4.60;;;25.70;42.30;;;;;;5095004;28;20233;-55
2021/06/02 12:24:06;;;;;;;7.93;4.85;;;25.80;40.30;;;;;;5089669;28;20064;-55
2021/06/02 12:26:41;;;;;;;8.07;4.47;;;25.70;41.50;;;;;;5057031;28;20043;-57
2021/06/02 12:29:12;;;;;;;10.68;4.55;;;25.70;40.90;;;;;;5094068;28;20493;-56
2021/06/02 12:31:57;;;;;;;9.73;5.22;;;25.80;41.60;;;;;;5069517;28;20040;-57
2021/06/02 12:34:32;;;;;;;7.03;4.63;;;25.80;39.40;;;;;;5086242;28;20032;-57
2021/06/02 12:37:07;;;;;;;6.43;4.32;;;25.80;40.50;;;;;;5080140;28;20089;-57
2021/06/02 12:39:37;;;;;;;6.07;4.45;;;25.80;41.70;;;;;;5090191;28;20044;-54
2021/06/02 12:42:05;;;;;;;7.47;4.70;;;25.80;41.80;;;;;;5077314;28;20348;-55
2021/06/02 12:44:40;;;;;;;6.80;4.45;;;25.90;40.90;;;;;;5079377;28;20153;-55
2021/06/02 12:47:09;;;;;;;8.88;4.93;;;25.80;40.00;;;;;;5048172;28;20048;-56
2021/06/02 12:49:52;;;;;;;7.05;4.93;;;25.80;41.20;;;;;;5093876;28;20044;-56
2021/06/02 12:52:21;;;;;;;6.22;4.75;;;25.80;40.10;;;;;;5094178;28;20048;-57
2021/06/02 12:54:46;;;;;;;8.70;5.05;;;25.80;39.70;;;;;;5086746;28;20062;-58
2021/06/02 12:57:12;;;;;;;6.40;4.47;;;25.80;40.80;;;;;;5092440;28;20036;-58
2021/06/02 12:59:39;;;;;;;8.25;4.45;;;25.90;40.40;;;;;;5084953;28;20033;-58
2021/06/02 13:02:10;;;;;;;8.02;4.72;;;25.90;40.40;;;;;;5092266;28;20044;-57
2021/06/02 13:04:36;;;;;;;7.78;4.63;;;25.90;40.20;;;;;;5093030;28;20463;-56
2021/06/02 13:07:11;;;;;;;8.63;4.70;;;25.90;41.50;;;;;;5079856;28;20040;-57
2021/06/02 13:09:37;;;;;;;8.50;5.00;;;26.00;41.90;;;;;;5059926;28;20504;-57
2021/06/02 13:12:03;;;;;;;8.13;4.70;;;26.20;40.10;;;;;;5094945;28;20036;-58
2021/06/02 13:14:37;;;;;;;7.05;5.03;;;26.30;41.40;;;;;;5092434;28;20044;-58
2021/06/02 13:17:03;;;;;;;10.18;5.07;;;26.30;39.70;;;;;;5094059;28;20149;-58
2021/06/02 13:19:52;;;;;;;8.00;4.78;;;26.30;40.30;;;;;;5092609;28;20044;-58
2021/06/02 13:22:23;;;;;;;7.95;4.82;;;26.40;41.00;;;;;;5062721;28;20090;-57
2021/06/02 13:24:49;;;;;;;7.70;4.50;;;26.60;41.10;;;;;;5092754;28;20100;-56
2021/06/02 13:27:21;;;;;;;7.43;4.68;;;26.70;41.00;;;;;;5092344;28;20046;-57
2021/06/02 13:30:05;;;;;;;;;;;26.80;40.30;;;;;;5094159;28;20044;-54